sensor_id;sensor_type;location;lat;lon;timestamp;pressure;altitude;pressure_sealevel;temperature;humidity
32733;BME280;11867;51.198;11.966;2022-11-15T00:02:18;100292.88;;;5.96;95.86
32733;BME280;11867;51.198;11.966;2022-11-15T00:07:22;100294.84;;;5.83;95.70
32733;BME280;11867;51.198;11.966;2022-11-15T00:12:45;100299.22;;;6.06;94.43
32733;BME280;11867;51.198;11.966;2022-11-15T00:17:48;100298.56;;;6.16;93.01
32733;BME280;11867;51.198;11.966;2022-11-15T00:22:52;100295.06;;;6.21;93.15
32733;BME280;11867;51.198;11.966;2022-11-15T00:27:56;100297.44;;;4.72;100.00
32733;BME280;11867;51.198;11.966;2022-11-15T00:33:01;100289.59;;;4.87;100.00
32733;BME280;11867;51.198;11.966;2022-11-15T00:38:05;100300.25;;;5.44;100.00
32733;BME280;11867;51.198;11.966;2022-11-15T00:43:08;100304.09;;;4.52;100.00
32733;BME280;11867;51.198;11.966;2022-11-15T00:48:10;100298.19;;;3.86;100.00
32733;BME280;11867;51.198;11.966;2022-11-15T00:53:15;100298.69;;;4.23;100.00
32733;BME280;11867;51.198;11.966;2022-11-15T00:58:18;100306.59;;;4.71;100.00
32733;BME280;11867;51.198;11.966;2022-11-15T01:03:21;100306.22;;;5.46;100.00
32733;BME280;11867;51.198;11.966;2022-11-15T01:08:25;100296.94;;;5.59;100.00
32733;BME280;11867;51.198;11.966;2022-11-15T01:13:30;100290.56;;;5.88;98.68
32733;BME280;11867;51.198;11.966;2022-11-15T01:18:33;100288.31;;;5.79;98.46
32733;BME280;11867;51.198;11.966;2022-11-15T01:23:37;100294.63;;;6.07;97.00
32733;BME280;11867;51.198;11.966;2022-11-15T01:28:41;100286.47;;;6.02;95.88
32733;BME280;11867;51.198;11.966;2022-11-15T01:33:45;100281.91;;;5.85;96.17
32733;BME280;11867;51.198;11.966;2022-11-15T01:38:52;100276.47;;;5.85;96.36
32733;BME280;11867;51.198;11.966;2022-11-15T01:44:25;100262.75;;;5.14;100.00
32733;BME280;11867;51.198;11.966;2022-11-15T01:49:22;100252.63;;;5.43;100.00
32733;BME280;11867;51.198;11.966;2022-11-15T01:54:27;100262.94;;;5.85;96.50
32733;BME280;11867;51.198;11.966;2022-11-15T01:59:30;100255.97;;;5.90;95.67
32733;BME280;11867;51.198;11.966;2022-11-15T02:04:36;100258.94;;;6.10;94.68
32733;BME280;11867;51.198;11.966;2022-11-15T02:09:42;100243.31;;;4.67;100.00
32733;BME280;11867;51.198;11.966;2022-11-15T02:14:48;100244.34;;;4.94;100.00
32733;BME280;11867;51.198;11.966;2022-11-15T02:20:29;100234.66;;;4.19;100.00
32733;BME280;11867;51.198;11.966;2022-11-15T02:25:48;100210.59;;;4.63;100.00
32733;BME280;11867;51.198;11.966;2022-11-15T02:31:03;100213.59;;;5.34;100.00
32733;BME280;11867;51.198;11.966;2022-11-15T02:36:11;100210.78;;;5.68;100.00
32733;BME280;11867;51.198;11.966;2022-11-15T02:41:22;100201.16;;;5.99;100.00
32733;BME280;11867;51.198;11.966;2022-11-15T02:46:32;100195.81;;;5.82;100.00
32733;BME280;11867;51.198;11.966;2022-11-15T02:51:55;100204.84;;;6.15;99.80
32733;BME280;11867;51.198;11.966;2022-11-15T02:57:00;100194.00;;;6.10;100.00
32733;BME280;11867;51.198;11.966;2022-11-15T03:02:15;100188.75;;;6.03;100.00
32733;BME280;11867;51.198;11.966;2022-11-15T03:07:25;100195.00;;;6.04;99.98
32733;BME280;11867;51.198;11.966;2022-11-15T03:12:36;100182.72;;;6.18;97.39
32733;BME280;11867;51.198;11.966;2022-11-15T03:17:48;100182.09;;;5.89;98.00
32733;BME280;11867;51.198;11.966;2022-11-15T03:22:54;100168.53;;;6.11;97.67
32733;BME280;11867;51.198;11.966;2022-11-15T03:28:01;100161.50;;;6.37;96.52
32733;BME280;11867;51.198;11.966;2022-11-15T03:33:08;100156.13;;;6.15;96.40
32733;BME280;11867;51.198;11.966;2022-11-15T03:38:17;100167.97;;;6.09;96.38
32733;BME280;11867;51.198;11.966;2022-11-15T03:43:29;100176.69;;;5.67;97.16
32733;BME280;11867;51.198;11.966;2022-11-15T03:48:39;100167.06;;;5.32;100.00
32733;BME280;11867;51.198;11.966;2022-11-15T03:53:42;100165.78;;;5.84;98.36
32733;BME280;11867;51.198;11.966;2022-11-15T03:58:45;100178.00;;;6.09;96.35
32733;BME280;11867;51.198;11.966;2022-11-15T04:03:49;100171.47;;;6.04;96.50
32733;BME280;11867;51.198;11.966;2022-11-15T04:08:51;100176.16;;;5.92;97.02
32733;BME280;11867;51.198;11.966;2022-11-15T04:13:54;100174.16;;;6.04;95.15
32733;BME280;11867;51.198;11.966;2022-11-15T04:18:58;100184.53;;;6.13;94.61
32733;BME280;11867;51.198;11.966;2022-11-15T04:24:18;100176.06;;;6.04;95.13
32733;BME280;11867;51.198;11.966;2022-11-15T04:29:21;100175.16;;;5.32;99.56
32733;BME280;11867;51.198;11.966;2022-11-15T04:34:40;100175.53;;;5.41;100.00
32733;BME280;11867;51.198;11.966;2022-11-15T04:39:43;100176.50;;;5.96;97.61
32733;BME280;11867;51.198;11.966;2022-11-15T04:44:45;100164.50;;;5.64;97.46
32733;BME280;11867;51.198;11.966;2022-11-15T04:49:49;100161.97;;;5.80;97.37
32733;BME280;11867;51.198;11.966;2022-11-15T04:54:52;100163.44;;;5.93;95.86
32733;BME280;11867;51.198;11.966;2022-11-15T04:59:55;100153.78;;;5.97;93.65
32733;BME280;11867;51.198;11.966;2022-11-15T05:04:58;100161.53;;;5.93;95.84
32733;BME280;11867;51.198;11.966;2022-11-15T05:10:01;100160.22;;;5.69;96.91
32733;BME280;11867;51.198;11.966;2022-11-15T05:15:04;100152.28;;;5.40;97.22
32733;BME280;11867;51.198;11.966;2022-11-15T05:20:10;100153.22;;;5.51;99.03
32733;BME280;11867;51.198;11.966;2022-11-15T05:25:12;100154.38;;;5.55;98.20
32733;BME280;11867;51.198;11.966;2022-11-15T05:30:15;100151.22;;;5.63;95.97
32733;BME280;11867;51.198;11.966;2022-11-15T05:35:28;100154.28;;;5.28;99.03
32733;BME280;11867;51.198;11.966;2022-11-15T05:40:33;100154.28;;;5.72;95.67
32733;BME280;11867;51.198;11.966;2022-11-15T05:45:36;100147.16;;;4.82;100.00
32733;BME280;11867;51.198;11.966;2022-11-15T05:50:42;100141.44;;;3.42;100.00
32733;BME280;11867;51.198;11.966;2022-11-15T05:55:46;100142.38;;;4.05;100.00
32733;BME280;11867;51.198;11.966;2022-11-15T06:00:49;100142.66;;;4.54;100.00
32733;BME280;11867;51.198;11.966;2022-11-15T06:05:53;100156.72;;;5.07;100.00
32733;BME280;11867;51.198;11.966;2022-11-15T06:10:56;100156.56;;;5.36;99.57
32733;BME280;11867;51.198;11.966;2022-11-15T06:15:59;100163.97;;;5.45;97.99
32733;BME280;11867;51.198;11.966;2022-11-15T06:21:04;100162.16;;;3.94;100.00
32733;BME280;11867;51.198;11.966;2022-11-15T06:26:07;100140.22;;;4.70;100.00
32733;BME280;11867;51.198;11.966;2022-11-15T06:31:10;100137.75;;;4.85;100.00
32733;BME280;11867;51.198;11.966;2022-11-15T06:36:15;100155.16;;;5.33;99.71
32733;BME280;11867;51.198;11.966;2022-11-15T06:41:18;100159.59;;;5.00;100.00
32733;BME280;11867;51.198;11.966;2022-11-15T06:46:22;100165.22;;;5.16;100.00
32733;BME280;11867;51.198;11.966;2022-11-15T06:51:26;100185.13;;;5.49;99.62
32733;BME280;11867;51.198;11.966;2022-11-15T06:56:29;100179.63;;;5.65;97.73
32733;BME280;11867;51.198;11.966;2022-11-15T07:01:31;100177.38;;;5.79;97.09
32733;BME280;11867;51.198;11.966;2022-11-15T07:06:35;100177.78;;;6.15;95.73
32733;BME280;11867;51.198;11.966;2022-11-15T07:11:38;100174.19;;;6.10;95.39
32733;BME280;11867;51.198;11.966;2022-11-15T07:16:41;100165.47;;;6.30;95.45
32733;BME280;11867;51.198;11.966;2022-11-15T07:21:45;100172.47;;;6.25;96.39
32733;BME280;11867;51.198;11.966;2022-11-15T07:26:47;100165.47;;;5.80;100.00
32733;BME280;11867;51.198;11.966;2022-11-15T07:31:50;100181.69;;;6.24;99.61
32733;BME280;11867;51.198;11.966;2022-11-15T07:37:03;100173.38;;;6.36;98.99
32733;BME280;11867;51.198;11.966;2022-11-15T07:42:06;100176.09;;;6.69;96.72
32733;BME280;11867;51.198;11.966;2022-11-15T07:47:28;100176.75;;;6.81;95.51
32733;BME280;11867;51.198;11.966;2022-11-15T07:52:32;100176.09;;;7.06;94.84
32733;BME280;11867;51.198;11.966;2022-11-15T07:57:34;100180.44;;;6.37;99.39
32733;BME280;11867;51.198;11.966;2022-11-15T08:02:37;100174.06;;;6.86;97.15
32733;BME280;11867;51.198;11.966;2022-11-15T08:07:41;100154.19;;;6.38;100.00
32733;BME280;11867;51.198;11.966;2022-11-15T08:12:44;100154.72;;;7.10;98.49
32733;BME280;11867;51.198;11.966;2022-11-15T08:17:47;100158.19;;;7.53;96.09
32733;BME280;11867;51.198;11.966;2022-11-15T08:22:55;100157.44;;;7.73;94.69
32733;BME280;11867;51.198;11.966;2022-11-15T08:27:59;100149.56;;;7.66;95.58
32733;BME280;11867;51.198;11.966;2022-11-15T08:33:02;100142.03;;;8.04;93.73
32733;BME280;11867;51.198;11.966;2022-11-15T08:38:06;100130.38;;;7.98;97.07
32733;BME280;11867;51.198;11.966;2022-11-15T08:43:09;100126.88;;;8.23;96.14
32733;BME280;11867;51.198;11.966;2022-11-15T08:48:11;100121.50;;;8.44;96.07
32733;BME280;11867;51.198;11.966;2022-11-15T08:53:15;100131.50;;;8.95;91.22
32733;BME280;11867;51.198;11.966;2022-11-15T08:58:18;100132.72;;;9.38;90.34
32733;BME280;11867;51.198;11.966;2022-11-15T09:03:21;100128.31;;;9.53;91.91
32733;BME280;11867;51.198;11.966;2022-11-15T09:08:25;100123.56;;;9.84;90.54
32733;BME280;11867;51.198;11.966;2022-11-15T09:13:49;100126.66;;;10.06;91.75
32733;BME280;11867;51.198;11.966;2022-11-15T09:18:53;100111.63;;;10.19;92.18
32733;BME280;11867;51.198;11.966;2022-11-15T09:23:57;100125.50;;;10.57;88.94
32733;BME280;11867;51.198;11.966;2022-11-15T09:29:00;100113.47;;;10.63;89.51
32733;BME280;11867;51.198;11.966;2022-11-15T09:34:03;100112.06;;;10.95;89.99
32733;BME280;11867;51.198;11.966;2022-11-15T09:39:07;100109.81;;;11.69;87.60
32733;BME280;11867;51.198;11.966;2022-11-15T09:44:25;100109.00;;;11.88;84.79
32733;BME280;11867;51.198;11.966;2022-11-15T09:49:31;100107.81;;;12.84;80.08
32733;BME280;11867;51.198;11.966;2022-11-15T09:54:37;100100.72;;;13.66;72.92
32733;BME280;11867;51.198;11.966;2022-11-15T10:00:09;100101.59;;;15.10;70.84
32733;BME280;11867;51.198;11.966;2022-11-15T10:05:40;100085.28;;;18.49;62.45
32733;BME280;11867;51.198;11.966;2022-11-15T10:10:47;100092.25;;;19.50;53.66
32733;BME280;11867;51.198;11.966;2022-11-15T10:16:20;100085.16;;;20.59;51.90
32733;BME280;11867;51.198;11.966;2022-11-15T10:21:32;100082.88;;;25.11;45.22
32733;BME280;11867;51.198;11.966;2022-11-15T10:26:47;100086.06;;;24.31;44.41
32733;BME280;11867;51.198;11.966;2022-11-15T10:31:50;100084.59;;;23.50;46.80
32733;BME280;11867;51.198;11.966;2022-11-15T10:36:56;100075.63;;;19.87;52.48
32733;BME280;11867;51.198;11.966;2022-11-15T10:42:15;100074.41;;;19.11;55.11
32733;BME280;11867;51.198;11.966;2022-11-15T10:47:27;100059.59;;;17.02;59.37
32733;BME280;11867;51.198;11.966;2022-11-15T10:52:36;100052.47;;;16.27;62.48
32733;BME280;11867;51.198;11.966;2022-11-15T10:57:49;100045.56;;;15.78;63.78
32733;BME280;11867;51.198;11.966;2022-11-15T11:02:57;100039.38;;;19.52;54.72
32733;BME280;11867;51.198;11.966;2022-11-15T11:08:03;100030.56;;;22.55;49.81
32733;BME280;11867;51.198;11.966;2022-11-15T11:13:14;100016.38;;;23.64;46.61
32733;BME280;11867;51.198;11.966;2022-11-15T11:18:22;100010.22;;;27.44;40.03
32733;BME280;11867;51.198;11.966;2022-11-15T11:23:38;100015.84;;;24.93;43.58
32733;BME280;11867;51.198;11.966;2022-11-15T11:28:50;100005.44;;;27.37;40.70
32733;BME280;11867;51.198;11.966;2022-11-15T11:34:01;100012.66;;;27.31;39.42
32733;BME280;11867;51.198;11.966;2022-11-15T11:39:17;99996.28;;;23.47;45.70
32733;BME280;11867;51.198;11.966;2022-11-15T11:44:30;99983.59;;;28.03;41.19
32733;BME280;11867;51.198;11.966;2022-11-15T11:49:40;99996.38;;;31.24;37.70
32733;BME280;11867;51.198;11.966;2022-11-15T11:54:54;99977.88;;;27.29;39.15
32733;BME280;11867;51.198;11.966;2022-11-15T12:00:03;99978.09;;;25.87;41.22
32733;BME280;11867;51.198;11.966;2022-11-15T12:05:10;99981.63;;;24.55;43.50
32733;BME280;11867;51.198;11.966;2022-11-15T12:10:20;99969.47;;;26.21;42.27
32733;BME280;11867;51.198;11.966;2022-11-15T12:15:28;99951.69;;;24.08;43.74
32733;BME280;11867;51.198;11.966;2022-11-15T12:20:35;99942.84;;;25.50;41.98
32733;BME280;11867;51.198;11.966;2022-11-15T12:25:43;99937.13;;;26.24;41.75
32733;BME280;11867;51.198;11.966;2022-11-15T12:30:52;99919.16;;;26.82;42.87
32733;BME280;11867;51.198;11.966;2022-11-15T12:35:58;99920.19;;;25.66;42.79
32733;BME280;11867;51.198;11.966;2022-11-15T12:41:17;99906.53;;;28.32;39.09
32733;BME280;11867;51.198;11.966;2022-11-15T12:52:05;99903.78;;;28.77;39.89
32733;BME280;11867;51.198;11.966;2022-11-15T12:57:38;99899.81;;;30.80;36.72
32733;BME280;11867;51.198;11.966;2022-11-15T13:02:43;99891.84;;;29.04;39.48
32733;BME280;11867;51.198;11.966;2022-11-15T13:07:57;99883.59;;;29.58;38.96
32733;BME280;11867;51.198;11.966;2022-11-15T13:13:02;99885.34;;;29.80;39.42
32733;BME280;11867;51.198;11.966;2022-11-15T13:18:33;99884.94;;;28.74;39.00
32733;BME280;11867;51.198;11.966;2022-11-15T13:23:36;99880.19;;;28.23;39.41
32733;BME280;11867;51.198;11.966;2022-11-15T13:28:43;99880.81;;;25.96;42.28
32733;BME280;11867;51.198;11.966;2022-11-15T13:33:48;99874.94;;;27.65;40.71
32733;BME280;11867;51.198;11.966;2022-11-15T13:38:56;99874.91;;;25.14;43.67
32733;BME280;11867;51.198;11.966;2022-11-15T13:44:01;99871.69;;;22.23;48.22
32733;BME280;11867;51.198;11.966;2022-11-15T13:49:09;99866.66;;;20.89;52.88
32733;BME280;11867;51.198;11.966;2022-11-15T13:54:25;99858.03;;;20.11;54.61
32733;BME280;11867;51.198;11.966;2022-11-15T13:59:31;99854.47;;;19.50;56.15
32733;BME280;11867;51.198;11.966;2022-11-15T14:04:38;99847.22;;;18.52;57.82
32733;BME280;11867;51.198;11.966;2022-11-15T14:09:41;99852.59;;;18.61;57.62
32733;BME280;11867;51.198;11.966;2022-11-15T14:14:46;99834.66;;;18.55;57.83
32733;BME280;11867;51.198;11.966;2022-11-15T14:19:50;99831.00;;;18.51;59.17
32733;BME280;11867;51.198;11.966;2022-11-15T14:25:16;99824.19;;;17.87;60.39
32733;BME280;11867;51.198;11.966;2022-11-15T14:30:21;99822.88;;;17.05;63.37
32733;BME280;11867;51.198;11.966;2022-11-15T14:35:25;99818.78;;;17.45;62.27
32733;BME280;11867;51.198;11.966;2022-11-15T14:40:27;99815.91;;;16.78;64.40
32733;BME280;11867;51.198;11.966;2022-11-15T14:45:31;99813.16;;;16.78;64.29
32733;BME280;11867;51.198;11.966;2022-11-15T14:50:35;99808.34;;;16.16;66.41
32733;BME280;11867;51.198;11.966;2022-11-15T14:55:38;99808.03;;;15.70;68.19
32733;BME280;11867;51.198;11.966;2022-11-15T15:00:41;99794.88;;;15.11;70.17
32733;BME280;11867;51.198;11.966;2022-11-15T15:05:45;99791.34;;;14.93;70.78
32733;BME280;11867;51.198;11.966;2022-11-15T15:10:49;99784.38;;;15.04;70.25
32733;BME280;11867;51.198;11.966;2022-11-15T15:15:52;99789.97;;;14.47;71.46
32733;BME280;11867;51.198;11.966;2022-11-15T15:20:58;99783.06;;;14.41;72.73
32733;BME280;11867;51.198;11.966;2022-11-15T15:26:04;99788.25;;;14.02;73.41
32733;BME280;11867;51.198;11.966;2022-11-15T15:31:07;99782.13;;;13.34;75.53
32733;BME280;11867;51.198;11.966;2022-11-15T15:36:13;99779.31;;;13.03;77.83
32733;BME280;11867;51.198;11.966;2022-11-15T15:41:16;99775.47;;;10.96;88.20
32733;BME280;11867;51.198;11.966;2022-11-15T15:46:19;99774.13;;;10.37;92.36
32733;BME280;11867;51.198;11.966;2022-11-15T15:51:23;99765.16;;;10.12;93.93
32733;BME280;11867;51.198;11.966;2022-11-15T15:56:26;99769.31;;;11.37;85.61
32733;BME280;11867;51.198;11.966;2022-11-15T16:01:29;99773.00;;;11.14;85.50
32733;BME280;11867;51.198;11.966;2022-11-15T16:06:38;99767.19;;;9.77;93.36
32733;BME280;11867;51.198;11.966;2022-11-15T16:11:45;99770.84;;;10.78;88.78
32733;BME280;11867;51.198;11.966;2022-11-15T16:16:48;99774.56;;;11.01;85.56
32733;BME280;11867;51.198;11.966;2022-11-15T16:21:52;99766.03;;;9.30;95.78
32733;BME280;11867;51.198;11.966;2022-11-15T16:26:54;99768.47;;;10.90;87.41
32733;BME280;11867;51.198;11.966;2022-11-15T16:31:57;99758.31;;;11.09;84.38
32733;BME280;11867;51.198;11.966;2022-11-15T16:37:01;99756.06;;;11.30;82.56
32733;BME280;11867;51.198;11.966;2022-11-15T16:42:04;99757.88;;;10.26;87.44
32733;BME280;11867;51.198;11.966;2022-11-15T16:47:15;99757.31;;;9.33;93.46
32733;BME280;11867;51.198;11.966;2022-11-15T16:52:20;99748.34;;;9.03;94.62
32733;BME280;11867;51.198;11.966;2022-11-15T16:57:22;99758.53;;;10.18;87.90
32733;BME280;11867;51.198;11.966;2022-11-15T17:02:26;99749.31;;;9.95;87.98
32733;BME280;11867;51.198;11.966;2022-11-15T17:07:30;99746.72;;;10.28;86.25
32733;BME280;11867;51.198;11.966;2022-11-15T17:12:33;99747.50;;;10.28;85.17
32733;BME280;11867;51.198;11.966;2022-11-15T17:17:36;99753.47;;;10.12;85.40
32733;BME280;11867;51.198;11.966;2022-11-15T17:22:40;99747.53;;;10.47;83.81
32733;BME280;11867;51.198;11.966;2022-11-15T17:27:43;99746.56;;;10.19;84.45
32733;BME280;11867;51.198;11.966;2022-11-15T17:32:46;99749.84;;;10.16;85.86
32733;BME280;11867;51.198;11.966;2022-11-15T17:37:51;99741.38;;;10.42;83.89
32733;BME280;11867;51.198;11.966;2022-11-15T17:42:53;99737.75;;;10.46;83.78
32733;BME280;11867;51.198;11.966;2022-11-15T17:47:57;99746.38;;;8.75;93.02
32733;BME280;11867;51.198;11.966;2022-11-15T17:53:02;99740.34;;;7.83;100.00
32733;BME280;11867;51.198;11.966;2022-11-15T17:58:04;99729.94;;;7.96;99.16
32733;BME280;11867;51.198;11.966;2022-11-15T18:03:07;99722.28;;;8.58;98.10
32733;BME280;11867;51.198;11.966;2022-11-15T18:08:11;99718.78;;;9.50;90.96
32733;BME280;11867;51.198;11.966;2022-11-15T18:13:17;99719.31;;;8.94;92.23
32733;BME280;11867;51.198;11.966;2022-11-15T18:18:21;99712.81;;;9.48;91.02
32733;BME280;11867;51.198;11.966;2022-11-15T18:23:25;99709.66;;;9.12;90.57
32733;BME280;11867;51.198;11.966;2022-11-15T18:28:29;99708.13;;;9.54;88.88
32733;BME280;11867;51.198;11.966;2022-11-15T18:33:33;99704.47;;;9.39;89.51
32733;BME280;11867;51.198;11.966;2022-11-15T18:38:38;99707.97;;;8.47;96.79
32733;BME280;11867;51.198;11.966;2022-11-15T18:43:42;99699.13;;;9.29;92.72
32733;BME280;11867;51.198;11.966;2022-11-15T18:48:46;99687.97;;;9.79;88.86
32733;BME280;11867;51.198;11.966;2022-11-15T18:53:53;99701.84;;;9.77;87.84
32733;BME280;11867;51.198;11.966;2022-11-15T18:58:57;99691.59;;;9.21;91.25
32733;BME280;11867;51.198;11.966;2022-11-15T19:04:03;99683.19;;;8.54;97.31
32733;BME280;11867;51.198;11.966;2022-11-15T19:09:09;99678.44;;;8.35;100.00
32733;BME280;11867;51.198;11.966;2022-11-15T19:14:13;99665.59;;;8.80;97.33
32733;BME280;11867;51.198;11.966;2022-11-15T19:19:18;99664.31;;;9.55;91.74
32733;BME280;11867;51.198;11.966;2022-11-15T19:24:22;99649.94;;;9.93;89.04
32733;BME280;11867;51.198;11.966;2022-11-15T19:29:25;99638.41;;;9.58;89.41
32733;BME280;11867;51.198;11.966;2022-11-15T19:34:29;99643.63;;;9.54;90.12
32733;BME280;11867;51.198;11.966;2022-11-15T19:39:33;99655.88;;;9.76;88.71
32733;BME280;11867;51.198;11.966;2022-11-15T19:44:41;99670.00;;;9.29;91.21
32733;BME280;11867;51.198;11.966;2022-11-15T19:49:44;99662.78;;;8.91;93.73
32733;BME280;11867;51.198;11.966;2022-11-15T19:54:49;99660.84;;;8.22;100.00
32733;BME280;11867;51.198;11.966;2022-11-15T19:59:51;99655.69;;;8.95;96.18
32733;BME280;11867;51.198;11.966;2022-11-15T20:04:54;99650.13;;;9.77;90.73
32733;BME280;11867;51.198;11.966;2022-11-15T20:09:58;99647.00;;;9.89;89.40
32733;BME280;11867;51.198;11.966;2022-11-15T20:15:01;99643.47;;;9.45;90.69
32733;BME280;11867;51.198;11.966;2022-11-15T20:20:05;99627.81;;;9.56;92.09
32733;BME280;11867;51.198;11.966;2022-11-15T20:25:10;99624.31;;;9.94;90.02
32733;BME280;11867;51.198;11.966;2022-11-15T20:30:13;99622.25;;;9.85;88.90
32733;BME280;11867;51.198;11.966;2022-11-15T20:35:15;99628.22;;;10.25;88.02
32733;BME280;11867;51.198;11.966;2022-11-15T20:40:19;99622.44;;;10.32;86.94
32733;BME280;11867;51.198;11.966;2022-11-15T20:45:22;99615.28;;;10.17;87.28
32733;BME280;11867;51.198;11.966;2022-11-15T20:50:25;99625.00;;;10.23;86.92
32733;BME280;11867;51.198;11.966;2022-11-15T20:55:46;99617.00;;;10.27;86.24
32733;BME280;11867;51.198;11.966;2022-11-15T21:00:49;99603.25;;;8.25;98.03
32733;BME280;11867;51.198;11.966;2022-11-15T21:05:52;99584.38;;;8.50;98.75
32733;BME280;11867;51.198;11.966;2022-11-15T21:10:57;99594.09;;;8.85;95.17
32733;BME280;11867;51.198;11.966;2022-11-15T21:16:17;99597.56;;;9.39;93.17
32733;BME280;11867;51.198;11.966;2022-11-15T21:21:20;99596.56;;;9.54;90.74
32733;BME280;11867;51.198;11.966;2022-11-15T21:26:24;99591.28;;;9.38;90.01
32733;BME280;11867;51.198;11.966;2022-11-15T21:31:26;99585.50;;;8.43;95.64
32733;BME280;11867;51.198;11.966;2022-11-15T21:36:29;99574.34;;;8.05;99.99
32733;BME280;11867;51.198;11.966;2022-11-15T21:41:34;99566.38;;;8.83;94.79
32733;BME280;11867;51.198;11.966;2022-11-15T21:46:36;99558.09;;;9.17;92.94
32733;BME280;11867;51.198;11.966;2022-11-15T21:51:39;99554.44;;;9.27;91.27
32733;BME280;11867;51.198;11.966;2022-11-15T21:56:43;99557.41;;;9.49;90.46
32733;BME280;11867;51.198;11.966;2022-11-15T22:01:46;99555.69;;;8.33;97.52
32733;BME280;11867;51.198;11.966;2022-11-15T22:07:07;99545.28;;;8.45;94.65
32733;BME280;11867;51.198;11.966;2022-11-15T22:12:11;99529.41;;;7.89;98.67
32733;BME280;11867;51.198;11.966;2022-11-15T22:17:14;99535.19;;;8.12;100.00
32733;BME280;11867;51.198;11.966;2022-11-15T22:22:17;99545.53;;;8.73;94.37
32733;BME280;11867;51.198;11.966;2022-11-15T22:27:21;99529.53;;;8.96;93.43
32733;BME280;11867;51.198;11.966;2022-11-15T22:32:23;99534.09;;;8.76;94.36
32733;BME280;11867;51.198;11.966;2022-11-15T22:37:26;99526.00;;;8.95;93.25
32733;BME280;11867;51.198;11.966;2022-11-15T22:42:30;99522.59;;;9.27;90.95
32733;BME280;11867;51.198;11.966;2022-11-15T22:47:34;99523.41;;;9.28;90.27
32733;BME280;11867;51.198;11.966;2022-11-15T22:52:37;99506.28;;;9.27;90.63
32733;BME280;11867;51.198;11.966;2022-11-15T22:57:41;99512.19;;;9.54;89.05
32733;BME280;11867;51.198;11.966;2022-11-15T23:02:44;99509.25;;;9.50;88.84
32733;BME280;11867;51.198;11.966;2022-11-15T23:07:53;99493.19;;;9.48;89.03
32733;BME280;11867;51.198;11.966;2022-11-15T23:13:02;99477.53;;;8.54;95.72
32733;BME280;11867;51.198;11.966;2022-11-15T23:18:18;99470.50;;;9.39;90.44
32733;BME280;11867;51.198;11.966;2022-11-15T23:23:21;99455.56;;;9.37;89.73
32733;BME280;11867;51.198;11.966;2022-11-15T23:28:25;99461.91;;;9.51;89.19
32733;BME280;11867;51.198;11.966;2022-11-15T23:33:27;99468.34;;;9.36;89.35
32733;BME280;11867;51.198;11.966;2022-11-15T23:38:47;99453.13;;;9.35;89.46
32733;BME280;11867;51.198;11.966;2022-11-15T23:43:51;99441.59;;;9.05;91.57
32733;BME280;11867;51.198;11.966;2022-11-15T23:48:54;99434.66;;;9.32;90.30
32733;BME280;11867;51.198;11.966;2022-11-15T23:53:57;99424.16;;;9.44;89.21
32733;BME280;11867;51.198;11.966;2022-11-15T23:59:02;99421.78;;;9.57;88.56
